Time;durP1;ratioP1;P1;durP2;ratioP2;P2;SDS_P1;SDS_P2;PMS_P1;PMS_P2;Temp;Humidity;BMP_temperature;BMP_pressure;BME280_temperature;BME280_humidity;BME280_pressure;Samples;Min_cycle;Max_cycle;Signal;HPM_P1;HPM_P2
2024/01/05 00:03:29;;;;;;;18.23;8.47;;;;;;;;;;10329248;28;20229;-69
2024/01/05 00:08:30;;;;;;;16.50;9.37;;;;;;;;;;10328719;28;20272;-69
2024/01/05 00:13:30;;;;;;;13.90;8.57;;;;;;;;;;10328880;28;20696;-69
2024/01/05 00:18:30;;;;;;;16.73;10.00;;;;;;;;;;10328431;28;20202;-69
2024/01/05 00:23:30;;;;;;;14.47;8.97;;;;;;;;;;10328518;28;20504;-69
2024/01/05 00:28:30;;;;;;;16.47;9.37;;;;;;;;;;10328235;28;20586;-69
2024/01/05 00:33:31;;;;;;;13.43;8.93;;;;;;;;;;10327805;28;20264;-69
2024/01/05 00:38:31;;;;;;;17.23;10.33;;;;;;;;;;10326558;28;20186;-69
2024/01/05 00:43:31;;;;;;;18.07;9.67;;;;;;;;;;10327548;28;20234;-68
2024/01/05 00:48:31;;;;;;;18.27;9.07;;;;;;;;;;10327682;28;20232;-69
2024/01/05 00:53:31;;;;;;;17.40;8.73;;;;;;;;;;10327422;28;20222;-68
2024/01/05 00:58:32;;;;;;;15.87;9.40;;;;;;;;;;10326952;28;20198;-69
2024/01/05 01:03:32;;;;;;;18.97;9.90;;;;;;;;;;10327060;28;20280;-69
2024/01/05 01:08:32;;;;;;;17.10;10.60;;;;;;;;;;10327155;28;20200;-69
2024/01/05 01:13:32;;;;;;;12.00;7.37;;;;;;;;;;10327051;28;20839;-69
2024/01/05 01:18:32;;;;;;;15.73;9.03;;;;;;;;;;10326632;28;20182;-69
2024/01/05 01:23:33;;;;;;;13.70;9.17;;;;;;;;;;10326560;28;20221;-69
2024/01/05 01:28:33;;;;;;;18.20;10.43;;;;;;;;;;10326701;28;20208;-69
2024/01/05 01:33:34;;;;;;;20.20;9.70;;;;;;;;;;10326775;28;20239;-69
2024/01/05 01:38:34;;;;;;;17.53;6.87;;;;;;;;;;10326481;28;20194;-68
2024/01/05 01:43:34;;;;;;;13.40;6.97;;;;;;;;;;10326532;28;20279;-68
2024/01/05 01:48:34;;;;;;;13.07;7.33;;;;;;;;;;10329629;28;20191;-69
2024/01/05 01:53:34;;;;;;;15.63;6.00;;;;;;;;;;10334204;28;20220;-68
2024/01/05 01:58:35;;;;;;;8.30;4.30;;;;;;;;;;10334035;28;20873;-68
2024/01/05 02:03:35;;;;;;;8.50;4.90;;;;;;;;;;10315812;28;20226;-68
2024/01/05 02:08:35;;;;;;;15.07;6.23;;;;;;;;;;10333498;28;20209;-68
2024/01/05 02:13:35;;;;;;;10.30;4.43;;;;;;;;;;10333177;28;20684;-68
2024/01/05 02:18:35;;;;;;;14.73;4.37;;;;;;;;;;10333718;28;20989;-68
2024/01/05 02:23:36;;;;;;;8.97;3.70;;;;;;;;;;10332938;28;20480;-68
2024/01/05 02:28:37;;;;;;;11.23;4.27;;;;;;;;;;10333361;28;20182;-69
2024/01/05 02:33:37;;;;;;;11.97;4.00;;;;;;;;;;10332356;28;20244;-69
2024/01/05 02:38:38;;;;;;;15.67;4.10;;;;;;;;;;10332926;28;20190;-68
2024/01/05 02:43:38;;;;;;;12.37;3.10;;;;;;;;;;10332478;28;20595;-68
2024/01/05 02:48:38;;;;;;;7.50;2.70;;;;;;;;;;10332217;28;20190;-68
2024/01/05 02:53:38;;;;;;;13.00;2.70;;;;;;;;;;10332039;28;20224;-68
2024/01/05 02:58:38;;;;;;;13.57;2.30;;;;;;;;;;10330820;28;20198;-68
2024/01/05 03:03:38;;;;;;;14.33;2.73;;;;;;;;;;10331957;28;20572;-68
2024/01/05 03:08:39;;;;;;;8.43;2.40;;;;;;;;;;10331740;28;20205;-68
2024/01/05 03:13:39;;;;;;;7.13;2.47;;;;;;;;;;10330931;28;20213;-68
2024/01/05 03:18:39;;;;;;;6.13;2.10;;;;;;;;;;10331475;28;20272;-68
2024/01/05 03:23:39;;;;;;;10.30;2.20;;;;;;;;;;10410937;22;20237;-68
2024/01/05 03:28:39;;;;;;;9.83;2.37;;;;;;;;;;10412178;28;20188;-68
2024/01/05 03:33:40;;;;;;;10.30;2.83;;;;;;;;;;10383960;28;20695;-68
2024/01/05 03:38:41;;;;;;;7.90;2.80;;;;;;;;;;10371955;28;20452;-68
2024/01/05 03:43:41;;;;;;;7.83;3.03;;;;;;;;;;10367262;28;20213;-69
2024/01/05 03:48:41;;;;;;;8.37;2.50;;;;;;;;;;10371749;28;20669;-69
2024/01/05 03:53:41;;;;;;;13.00;2.87;;;;;;;;;;10370963;28;20216;-69
2024/01/05 03:58:42;;;;;;;10.00;2.03;;;;;;;;;;10371049;28;20276;-69
2024/01/05 04:03:42;;;;;;;17.97;3.30;;;;;;;;;;10370293;28;20591;-69
2024/01/05 04:08:42;;;;;;;4.97;2.10;;;;;;;;;;10370164;28;20188;-69
2024/01/05 04:13:42;;;;;;;13.37;2.30;;;;;;;;;;10369992;28;20215;-69
2024/01/05 04:18:42;;;;;;;8.73;2.37;;;;;;;;;;10370182;28;20298;-70
2024/01/05 04:23:42;;;;;;;10.10;2.47;;;;;;;;;;10369980;28;20718;-69
2024/01/05 04:28:43;;;;;;;8.20;2.70;;;;;;;;;;10369863;28;20185;-69
2024/01/05 04:33:43;;;;;;;10.07;2.93;;;;;;;;;;10369896;28;20355;-69
2024/01/05 04:38:43;;;;;;;9.67;3.00;;;;;;;;;;10369442;28;20730;-69
2024/01/05 04:43:44;;;;;;;5.27;2.37;;;;;;;;;;10369383;28;20227;-69
2024/01/05 04:48:44;;;;;;;4.63;2.20;;;;;;;;;;10369477;28;20189;-69
2024/01/05 04:53:46;;;;;;;12.93;2.43;;;;;;;;;;10369113;28;20563;-69
2024/01/05 04:58:46;;;;;;;14.83;2.77;;;;;;;;;;10369019;28;20195;-69
2024/01/05 05:03:46;;;;;;;4.70;3.47;;;;;;;;;;10368576;28;20762;-69
2024/01/05 05:08:46;;;;;;;18.07;6.67;;;;;;;;;;10369105;28;20562;-69
2024/01/05 05:13:47;;;;;;;29.80;11.13;;;;;;;;;;10368693;28;20208;-69
2024/01/05 05:18:49;;;;;;;44.07;13.23;;;;;;;;;;10361548;28;20197;-69
2024/01/05 05:23:49;;;;;;;91.00;32.37;;;;;;;;;;10372751;28;21044;-69
2024/01/05 05:28:49;;;;;;;14.33;6.40;;;;;;;;;;10376832;28;20245;-69
2024/01/05 05:33:49;;;;;;;23.43;9.60;;;;;;;;;;10375624;28;20231;-69
2024/01/05 05:38:50;;;;;;;18.07;5.43;;;;;;;;;;10376403;28;20702;-69
2024/01/05 05:43:50;;;;;;;41.83;17.53;;;;;;;;;;10376361;28;20292;-69
2024/01/05 05:48:50;;;;;;;50.33;20.40;;;;;;;;;;10375984;28;20328;-69
2024/01/05 05:53:51;;;;;;;15.83;6.37;;;;;;;;;;10374744;28;20264;-69
2024/01/05 05:58:51;;;;;;;11.47;5.00;;;;;;;;;;10375709;28;20758;-69
2024/01/05 06:03:51;;;;;;;9.60;2.90;;;;;;;;;;10375700;28;20217;-69
2024/01/05 06:08:51;;;;;;;10.30;3.47;;;;;;;;;;10375450;28;20576;-69
2024/01/05 06:13:52;;;;;;;19.43;3.27;;;;;;;;;;10373864;28;20205;-69
2024/01/05 06:18:52;;;;;;;8.47;3.67;;;;;;;;;;10375118;28;20204;-69
2024/01/05 06:23:53;;;;;;;10.93;3.47;;;;;;;;;;10374300;28;20662;-69
2024/01/05 06:28:53;;;;;;;7.90;3.73;;;;;;;;;;10374729;28;20200;-69
2024/01/05 06:33:54;;;;;;;12.40;4.23;;;;;;;;;;10373542;28;20217;-69
2024/01/05 06:38:54;;;;;;;6.13;3.87;;;;;;;;;;10374271;28;21464;-69
2024/01/05 06:43:54;;;;;;;8.00;4.57;;;;;;;;;;10373364;28;20487;-69
2024/01/05 06:48:57;;;;;;;6.97;4.40;;;;;;;;;;10373705;28;20193;-69
2024/01/05 06:53:57;;;;;;;7.00;3.00;;;;;;;;;;10371015;28;20571;-68
2024/01/05 06:59:01;;;;;;;4.40;3.13;;;;;;;;;;10370066;28;20197;-68
2024/01/05 07:04:02;;;;;;;7.07;3.77;;;;;;;;;;10369780;28;20228;-68
2024/01/05 07:09:02;;;;;;;6.27;3.30;;;;;;;;;;10369901;28;20602;-68
2024/01/05 07:14:02;;;;;;;4.50;2.60;;;;;;;;;;10370264;28;20213;-68
2024/01/05 07:19:03;;;;;;;5.93;3.30;;;;;;;;;;10372797;28;20231;-68
2024/01/05 07:24:03;;;;;;;7.47;3.87;;;;;;;;;;10371946;28;20488;-68
2024/01/05 07:29:03;;;;;;;28.03;18.87;;;;;;;;;;10367221;28;20193;-68
2024/01/05 07:34:04;;;;;;;5.57;3.77;;;;;;;;;;10372015;28;20547;-68
2024/01/05 07:39:04;;;;;;;5.80;2.60;;;;;;;;;;10371984;28;20708;-68
2024/01/05 07:44:05;;;;;;;8.43;3.90;;;;;;;;;;10370174;28;20479;-68
2024/01/05 07:49:05;;;;;;;4.10;2.67;;;;;;;;;;10370254;28;20204;-68
2024/01/05 07:54:05;;;;;;;2.83;2.50;;;;;;;;;;10371385;28;20301;-68
2024/01/05 07:59:05;;;;;;;4.17;3.33;;;;;;;;;;10371149;28;20757;-68
2024/01/05 08:04:06;;;;;;;4.77;3.10;;;;;;;;;;10362103;28;20853;-68
2024/01/05 08:09:06;;;;;;;2.60;2.40;;;;;;;;;;10366058;28;20185;-68
2024/01/05 08:14:07;;;;;;;6.43;2.73;;;;;;;;;;10362234;28;20240;-69
2024/01/05 08:19:07;;;;;;;3.50;2.33;;;;;;;;;;10366343;28;20193;-69
2024/01/05 08:24:07;;;;;;;6.27;2.30;;;;;;;;;;10365975;28;20218;-69
2024/01/05 08:29:08;;;;;;;5.90;2.40;;;;;;;;;;10360519;28;20296;-69
2024/01/05 08:34:08;;;;;;;5.00;2.77;;;;;;;;;;10365220;28;20308;-69
2024/01/05 08:39:08;;;;;;;2.70;1.97;;;;;;;;;;10366114;28;20585;-70
2024/01/05 08:44:08;;;;;;;4.13;2.63;;;;;;;;;;10364763;28;20242;-70
2024/01/05 08:49:08;;;;;;;4.73;2.53;;;;;;;;;;10366006;28;20178;-71
2024/01/05 08:54:09;;;;;;;6.20;2.80;;;;;;;;;;10365554;28;20231;-71
2024/01/05 08:59:10;;;;;;;5.87;3.60;;;;;;;;;;10357293;28;20280;-70
2024/01/05 09:04:13;;;;;;;5.23;2.70;;;;;;;;;;10349120;28;20640;-70
2024/01/05 09:09:14;;;;;;;7.13;2.70;;;;;;;;;;10350893;28;20448;-71
2024/01/05 09:14:14;;;;;;;3.90;2.13;;;;;;;;;;10343928;28;20228;-71
2024/01/05 09:19:14;;;;;;;4.53;1.67;;;;;;;;;;10352243;28;20268;-70
2024/01/05 09:24:14;;;;;;;8.40;3.60;;;;;;;;;;10362710;28;20735;-71
2024/01/05 09:29:15;;;;;;;4.30;1.83;;;;;;;;;;10359386;28;20794;-70
2024/01/05 09:34:16;;;;;;;2.87;1.03;;;;;;;;;;10352406;28;20624;-70
2024/01/05 09:39:17;;;;;;;9.97;3.30;;;;;;;;;;10361510;28;20185;-70
2024/01/05 09:44:17;;;;;;;6.40;1.87;;;;;;;;;;10361683;28;20213;-71
2024/01/05 09:49:18;;;;;;;5.60;1.87;;;;;;;;;;10363267;28;20566;-70
2024/01/05 09:54:18;;;;;;;4.73;2.20;;;;;;;;;;10359306;28;20210;-69
2024/01/05 09:59:19;;;;;;;4.33;1.90;;;;;;;;;;10353962;28;20200;-69
2024/01/05 10:04:19;;;;;;;5.03;2.33;;;;;;;;;;10351915;28;20468;-69
2024/01/05 10:09:20;;;;;;;3.70;1.83;;;;;;;;;;10361225;28;20683;-69
2024/01/05 10:14:23;;;;;;;6.43;2.43;;;;;;;;;;10367502;28;20224;-69
2024/01/05 10:19:24;;;;;;;5.20;2.30;;;;;;;;;;10368766;28;20236;-69
2024/01/05 10:24:26;;;;;;;3.83;2.33;;;;;;;;;;10369580;28;20795;-70
2024/01/05 10:29:26;;;;;;;8.47;2.97;;;;;;;;;;10367430;28;20220;-70
2024/01/05 10:34:33;;;;;;;6.30;4.00;;;;;;;;;;10368568;28;20216;-70
2024/01/05 10:39:33;;;;;;;3.93;1.93;;;;;;;;;;10365737;28;20201;-70
2024/01/05 10:44:33;;;;;;;5.87;2.50;;;;;;;;;;10366664;28;20307;-69
2024/01/05 10:49:33;;;;;;;7.77;2.70;;;;;;;;;;10361404;28;20849;-70
2024/01/05 10:54:34;;;;;;;5.10;2.30;;;;;;;;;;10361875;28;20296;-70
2024/01/05 10:59:34;;;;;;;4.37;2.20;;;;;;;;;;10364845;28;20228;-70
2024/01/05 11:04:34;;;;;;;6.90;2.88;;;;;;;;;;10366187;28;20595;-70
2024/01/05 11:09:42;;;;;;;8.80;2.87;;;;;;;;;;10362324;28;20213;-70
2024/01/05 11:15:07;;;;;;;5.20;2.77;;;;;;;;;;10363919;28;20721;-70
2024/01/05 11:20:07;;;;;;;4.30;2.63;;;;;;;;;;10364801;28;20213;-70
2024/01/05 11:25:08;;;;;;;5.83;2.97;;;;;;;;;;10367232;28;20241;-69
2024/01/05 11:30:08;;;;;;;7.33;3.33;;;;;;;;;;10367396;28;20220;-69
2024/01/05 11:35:19;;;;;;;5.97;3.23;;;;;;;;;;10366211;28;20213;-70
2024/01/05 11:40:25;;;;;;;6.73;3.50;;;;;;;;;;10361019;28;20213;-70
2024/01/05 11:45:41;;;;;;;4.27;2.47;;;;;;;;;;10355649;28;20580;-70
2024/01/05 11:50:41;;;;;;;3.30;2.50;;;;;;;;;;10365626;28;20221;-70
2024/01/05 11:55:49;;;;;;;8.13;2.40;;;;;;;;;;10365182;28;20189;-71
2024/01/05 12:00:50;;;;;;;4.67;2.47;;;;;;;;;;10362977;28;20220;-69
2024/01/05 12:05:57;;;;;;;5.80;2.80;;;;;;;;;;10365453;28;20203;-71
2024/01/05 12:10:58;;;;;;;4.63;2.30;;;;;;;;;;10355269;28;20216;-70
2024/01/05 12:16:03;;;;;;;10.23;3.00;;;;;;;;;;10358144;28;20541;-70
2024/01/05 12:21:03;;;;;;;7.83;2.47;;;;;;;;;;10364365;28;20334;-70
2024/01/05 12:26:04;;;;;;;7.90;2.10;;;;;;;;;;10363686;28;20269;-71
2024/01/05 12:31:05;;;;;;;4.53;2.00;;;;;;;;;;10354938;28;20781;-71
2024/01/05 12:36:09;;;;;;;4.97;1.83;;;;;;;;;;10354630;28;20259;-71
2024/01/05 12:41:10;;;;;;;5.93;2.60;;;;;;;;;;10356903;28;20275;-71
2024/01/05 12:46:11;;;;;;;5.10;2.30;;;;;;;;;;10358461;28;20186;-70
2024/01/05 12:51:18;;;;;;;1.83;1.47;;;;;;;;;;10364479;28;20205;-70
2024/01/05 12:56:20;;;;;;;4.00;1.50;;;;;;;;;;10363833;28;20220;-69
2024/01/05 13:01:21;;;;;;;2.33;1.30;;;;;;;;;;10364234;28;20753;-70
2024/01/05 13:06:22;;;;;;;6.80;1.90;;;;;;;;;;10364326;28;20198;-71
2024/01/05 13:11:22;;;;;;;2.80;1.67;;;;;;;;;;10359771;28;20324;-70
2024/01/05 13:16:22;;;;;;;4.47;1.40;;;;;;;;;;10363569;28;20196;-70
2024/01/05 13:21:23;;;;;;;5.77;1.97;;;;;;;;;;10358548;28;20709;-70
2024/01/05 13:26:23;;;;;;;4.93;1.57;;;;;;;;;;10363184;28;20889;-70
2024/01/05 13:31:23;;;;;;;3.30;1.33;;;;;;;;;;10362016;28;20220;-69
2024/01/05 13:36:24;;;;;;;5.63;4.70;;;;;;;;;;10363340;28;20197;-70
2024/01/05 13:41:24;;;;;;;5.40;2.90;;;;;;;;;;10352496;28;20304;-69
2024/01/05 13:46:24;;;;;;;6.80;2.87;;;;;;;;;;10356694;28;20205;-70
2024/01/05 13:51:24;;;;;;;9.10;3.70;;;;;;;;;;10357618;28;20209;-69
2024/01/05 13:56:26;;;;;;;15.40;5.93;;;;;;;;;;10357022;28;20186;-69
2024/01/05 14:01:26;;;;;;;3.17;1.60;;;;;;;;;;10358670;28;20217;-70
2024/01/05 14:06:26;;;;;;;8.43;4.50;;;;;;;;;;10361354;28;20194;-70
2024/01/05 14:11:27;;;;;;;51.80;22.07;;;;;;;;;;10361270;28;20498;-69
2024/01/05 14:16:27;;;;;;;30.20;12.67;;;;;;;;;;10368844;28;20193;-70
2024/01/05 14:21:28;;;;;;;21.93;11.37;;;;;;;;;;10369117;28;20333;-69
2024/01/05 14:26:28;;;;;;;25.77;15.77;;;;;;;;;;10366945;28;20189;-70
2024/01/05 14:31:29;;;;;;;21.17;12.23;;;;;;;;;;10367821;28;20213;-70
2024/01/05 14:36:29;;;;;;;10.50;8.07;;;;;;;;;;10369331;28;20798;-69
2024/01/05 14:41:30;;;;;;;2.20;1.60;;;;;;;;;;10369292;28;20278;-69
2024/01/05 14:46:30;;;;;;;4.10;1.70;;;;;;;;;;10369071;28;20189;-69
2024/01/05 14:51:30;;;;;;;4.63;1.30;;;;;;;;;;10367723;28;20213;-69
2024/01/05 14:56:31;;;;;;;3.97;1.40;;;;;;;;;;10361821;28;20664;-69
2024/01/05 15:01:32;;;;;;;4.23;1.80;;;;;;;;;;10368791;28;20223;-69
2024/01/05 15:06:32;;;;;;;2.57;1.80;;;;;;;;;;10368604;28;20675;-70
2024/01/05 15:11:32;;;;;;;6.47;1.90;;;;;;;;;;10366922;28;20216;-70
2024/01/05 15:16:39;;;;;;;4.90;2.07;;;;;;;;;;10368240;28;20193;-69
2024/01/05 15:21:40;;;;;;;6.23;2.23;;;;;;;;;;10367562;28;20518;-69
2024/01/05 15:26:46;;;;;;;4.33;2.00;;;;;;;;;;10361441;28;20190;-69
2024/01/05 15:31:46;;;;;;;4.13;2.27;;;;;;;;;;10359762;28;20249;-68
2024/01/05 15:36:50;;;;;;;4.23;2.20;;;;;;;;;;10367227;28;20217;-69
2024/01/05 15:41:50;;;;;;;5.77;1.90;;;;;;;;;;10367041;28;20308;-70
2024/01/05 15:46:50;;;;;;;4.80;2.40;;;;;;;;;;10355058;22;20252;-68
2024/01/05 15:51:50;;;;;;;5.30;1.90;;;;;;;;;;10326303;28;20280;-69
2024/01/05 15:56:51;;;;;;;8.60;2.47;;;;;;;;;;10324328;28;20230;-68
2024/01/05 16:01:51;;;;;;;6.30;2.57;;;;;;;;;;10319544;28;20244;-69
2024/01/05 16:06:51;;;;;;;7.87;2.80;;;;;;;;;;10325206;28;20301;-69
2024/01/05 16:11:51;;;;;;;12.73;5.37;;;;;;;;;;10325652;28;20241;-69
2024/01/05 16:16:55;;;;;;;18.17;11.27;;;;;;;;;;10325789;28;20591;-69
2024/01/05 16:21:55;;;;;;;7.80;3.97;;;;;;;;;;10323332;28;20324;-69
2024/01/05 16:26:55;;;;;;;8.20;2.63;;;;;;;;;;10325109;28;20228;-69
2024/01/05 16:31:55;;;;;;;5.80;2.30;;;;;;;;;;10320627;28;20194;-68
2024/01/05 16:36:55;;;;;;;5.43;2.47;;;;;;;;;;10324304;28;20209;-70
2024/01/05 16:41:56;;;;;;;4.23;2.40;;;;;;;;;;10323186;28;20224;-68
2024/01/05 16:46:56;;;;;;;4.97;2.63;;;;;;;;;;10324208;28;20617;-70
2024/01/05 16:51:56;;;;;;;6.53;2.70;;;;;;;;;;10320561;28;20283;-69
2024/01/05 16:56:56;;;;;;;48.13;25.33;;;;;;;;;;10309213;28;20222;-69
2024/01/05 17:01:56;;;;;;;20.43;7.90;;;;;;;;;;10311036;28;20220;-68
2024/01/05 17:06:57;;;;;;;21.43;7.77;;;;;;;;;;10312167;28;20210;-68
2024/01/05 17:11:58;;;;;;;19.20;6.43;;;;;;;;;;10315084;28;20687;-68
2024/01/05 17:16:58;;;;;;;12.90;4.83;;;;;;;;;;10318612;28;20241;-68
2024/01/05 17:21:59;;;;;;;18.20;8.17;;;;;;;;;;10325528;28;20264;-68
2024/01/05 17:26:59;;;;;;;23.43;8.97;;;;;;;;;;10326648;28;20229;-68
2024/01/05 17:31:59;;;;;;;7.90;4.10;;;;;;;;;;10326946;28;20198;-68
2024/01/05 17:36:59;;;;;;;10.17;3.77;;;;;;;;;;10325361;28;20207;-69
2024/01/05 17:42:00;;;;;;;8.30;3.07;;;;;;;;;;10326718;28;20297;-68
2024/01/05 17:47:00;;;;;;;8.30;3.60;;;;;;;;;;10326744;28;20256;-69
2024/01/05 17:52:00;;;;;;;7.97;3.27;;;;;;;;;;10325994;28;20722;-68
2024/01/05 17:57:04;;;;;;;6.37;2.30;;;;;;;;;;10324634;28;20842;-69
2024/01/05 18:02:04;;;;;;;11.13;5.00;;;;;;;;;;10324821;28;20226;-69
2024/01/05 18:07:04;;;;;;;5.00;3.00;;;;;;;;;;10325765;28;20229;-69
2024/01/05 18:12:04;;;;;;;10.57;3.77;;;;;;;;;;10326172;28;20281;-69
2024/01/05 18:17:05;;;;;;;6.70;2.80;;;;;;;;;;10323408;28;20236;-69
2024/01/05 18:22:05;;;;;;;11.20;3.23;;;;;;;;;;10325893;28;20214;-69
2024/01/05 18:27:05;;;;;;;11.23;3.90;;;;;;;;;;10325296;28;20218;-69
2024/01/05 18:32:06;;;;;;;16.77;8.13;;;;;;;;;;10331333;28;20217;-69
2024/01/05 18:37:06;;;;;;;25.53;13.23;;;;;;;;;;10330957;28;20241;-69
2024/01/05 18:42:06;;;;;;;27.67;14.93;;;;;;;;;;10332010;28;20209;-69
2024/01/05 18:47:07;;;;;;;24.77;11.07;;;;;;;;;;10332147;28;20265;-69
2024/01/05 18:52:07;;;;;;;33.33;15.60;;;;;;;;;;10319107;28;20190;-69
2024/01/05 18:57:07;;;;;;;23.07;10.50;;;;;;;;;;10323005;28;20269;-69
2024/01/05 19:02:07;;;;;;;31.27;12.53;;;;;;;;;;10322184;28;20218;-69
2024/01/05 19:07:07;;;;;;;75.67;25.50;;;;;;;;;;10322458;28;20252;-69
2024/01/05 19:12:08;;;;;;;49.90;15.47;;;;;;;;;;10319508;28;20574;-68
2024/01/05 19:17:09;;;;;;;13.23;5.57;;;;;;;;;;10330975;28;20216;-69
2024/01/05 19:22:09;;;;;;;7.73;3.87;;;;;;;;;;10330852;28;20214;-69
2024/01/05 19:27:09;;;;;;;9.70;4.43;;;;;;;;;;10320905;28;20206;-69
2024/01/05 19:32:09;;;;;;;16.10;8.17;;;;;;;;;;10317027;28;20213;-68
2024/01/05 19:37:10;;;;;;;10.17;6.13;;;;;;;;;;10330083;28;20684;-69
2024/01/05 19:42:10;;;;;;;11.43;5.37;;;;;;;;;;10329387;28;20586;-70
2024/01/05 19:47:11;;;;;;;22.70;11.47;;;;;;;;;;10329661;28;20226;-69
2024/01/05 19:52:11;;;;;;;18.47;10.03;;;;;;;;;;10328339;28;20583;-69
2024/01/05 19:57:12;;;;;;;12.70;6.67;;;;;;;;;;10329166;28;20221;-69
2024/01/05 20:02:12;;;;;;;9.43;5.47;;;;;;;;;;10329136;28;20731;-69
2024/01/05 20:07:14;;;;;;;11.23;7.27;;;;;;;;;;10326489;28;20253;-70
2024/01/05 20:12:16;;;;;;;10.33;5.73;;;;;;;;;;10327381;28;20237;-69
2024/01/05 20:17:16;;;;;;;16.70;5.57;;;;;;;;;;10328870;28;20213;-68
2024/01/05 20:22:16;;;;;;;16.80;6.87;;;;;;;;;;10328339;28;20585;-69
2024/01/05 20:27:16;;;;;;;15.40;6.20;;;;;;;;;;10324228;28;20210;-69
2024/01/05 20:32:17;;;;;;;12.70;6.30;;;;;;;;;;10326544;28;20182;-69
2024/01/05 20:37:17;;;;;;;11.43;6.43;;;;;;;;;;10327883;28;20224;-69
2024/01/05 20:42:17;;;;;;;10.83;5.63;;;;;;;;;;10328105;28;20214;-70
2024/01/05 20:47:19;;;;;;;20.77;9.10;;;;;;;;;;10325824;28;20684;-69
2024/01/05 20:52:19;;;;;;;14.93;7.60;;;;;;;;;;10318486;28;20212;-68
2024/01/05 20:57:19;;;;;;;18.27;7.03;;;;;;;;;;10320265;28;20189;-69
2024/01/05 21:02:19;;;;;;;23.17;8.87;;;;;;;;;;10317508;28;20217;-70
2024/01/05 21:07:19;;;;;;;12.13;6.97;;;;;;;;;;10320197;28;20276;-70
2024/01/05 21:12:21;;;;;;;10.33;5.33;;;;;;;;;;10320446;28;20189;-70
2024/01/05 21:17:21;;;;;;;11.87;5.33;;;;;;;;;;10327097;28;20453;-70
2024/01/05 21:22:21;;;;;;;10.37;5.43;;;;;;;;;;10326501;28;20608;-70
2024/01/05 21:27:21;;;;;;;11.13;5.80;;;;;;;;;;10325526;28;20213;-70
2024/01/05 21:32:22;;;;;;;10.03;5.87;;;;;;;;;;10327141;28;20542;-70
2024/01/05 21:37:22;;;;;;;11.87;5.53;;;;;;;;;;10326642;28;20672;-70
2024/01/05 21:42:23;;;;;;;8.63;5.17;;;;;;;;;;10326229;28;21021;-69
2024/01/05 21:47:23;;;;;;;10.77;5.53;;;;;;;;;;10324593;28;20234;-70
2024/01/05 21:52:23;;;;;;;12.37;5.40;;;;;;;;;;10326406;28;20194;-70
2024/01/05 21:57:24;;;;;;;7.57;4.70;;;;;;;;;;10326157;28;20202;-70
2024/01/05 22:02:24;;;;;;;7.17;4.37;;;;;;;;;;10326091;28;20221;-70
2024/01/05 22:07:25;;;;;;;6.57;3.97;;;;;;;;;;10330929;28;20731;-70
2024/01/05 22:12:25;;;;;;;10.07;4.63;;;;;;;;;;10333320;28;20277;-70
2024/01/05 22:17:25;;;;;;;9.63;4.23;;;;;;;;;;10333107;28;20190;-71
2024/01/05 22:22:26;;;;;;;7.83;4.10;;;;;;;;;;10327998;28;20261;-68
2024/01/05 22:27:27;;;;;;;7.87;3.47;;;;;;;;;;10320123;28;20442;-69
2024/01/05 22:32:27;;;;;;;6.10;3.77;;;;;;;;;;10319976;28;20193;-68
2024/01/05 22:37:27;;;;;;;10.57;3.40;;;;;;;;;;10322925;28;20194;-68
2024/01/05 22:42:27;;;;;;;7.23;3.70;;;;;;;;;;10330391;28;20248;-68
2024/01/05 22:47:27;;;;;;;5.03;3.10;;;;;;;;;;10332242;28;20186;-69
2024/01/05 22:52:27;;;;;;;5.17;3.20;;;;;;;;;;10332098;28;20190;-69
2024/01/05 22:57:28;;;;;;;6.27;3.27;;;;;;;;;;10332214;28;20194;-68
2024/01/05 23:02:28;;;;;;;7.17;3.57;;;;;;;;;;10330057;28;20225;-69
2024/01/05 23:07:28;;;;;;;6.77;3.10;;;;;;;;;;10331782;28;20220;-69
2024/01/05 23:12:29;;;;;;;6.17;3.37;;;;;;;;;;10331732;28;20312;-69
2024/01/05 23:17:29;;;;;;;7.83;3.60;;;;;;;;;;10330200;28;20190;-69
2024/01/05 23:22:30;;;;;;;7.00;2.90;;;;;;;;;;10329915;28;20210;-68
2024/01/05 23:27:30;;;;;;;7.30;3.00;;;;;;;;;;10330906;28;20194;-69
2024/01/05 23:32:31;;;;;;;9.00;3.53;;;;;;;;;;10331187;28;20193;-68
2024/01/05 23:37:31;;;;;;;5.70;2.90;;;;;;;;;;10330577;28;20198;-69
2024/01/05 23:42:31;;;;;;;8.13;2.77;;;;;;;;;;10328638;28;20221;-69
2024/01/05 23:47:31;;;;;;;8.17;3.07;;;;;;;;;;10330613;28;20206;-68
2024/01/05 23:52:32;;;;;;;7.17;3.77;;;;;;;;;;10329816;28;20668;-68
2024/01/05 23:57:32;;;;;;;8.00;3.10;;;;;;;;;;10328368;28;20225;-69
